Time;durP1;ratioP1;P1;durP2;ratioP2;P2;SDS_P1;SDS_P2;PMS_P1;PMS_P2;Temp;Humidity;BMP_temperature;BMP_pressure;BME280_temperature;BME280_humidity;BME280_pressure;Samples;Min_cycle;Max_cycle;Signal;HPM_P1;HPM_P2
2021/06/23 00:01:15;;;;;;;2.20;1.00;;;25.20;58.70;;;;;;4989979;28;20871;-61
2021/06/23 00:03:41;;;;;;;2.47;1.10;;;25.20;58.60;;;;;;4998472;28;20430;-61
2021/06/23 00:06:07;;;;;;;1.88;1.13;;;25.20;58.50;;;;;;4995755;28;20404;-61
2021/06/23 00:08:33;;;;;;;1.80;1.02;;;25.20;58.50;;;;;;4989299;28;20421;-61
2021/06/23 00:11:00;;;;;;;1.67;1.00;;;25.20;58.60;;;;;;4989234;28;20397;-61
2021/06/23 00:13:28;;;;;;;1.75;0.90;;;25.10;58.40;;;;;;4989601;28;20405;-61
2021/06/23 00:15:54;;;;;;;2.00;0.90;;;25.10;58.40;;;;;;4988178;28;20398;-61
2021/06/23 00:18:20;;;;;;;2.50;1.25;;;25.10;58.40;;;;;;4989625;28;20402;-61
2021/06/23 00:20:45;;;;;;;1.77;0.90;;;25.10;58.40;;;;;;4991866;28;20383;-61
2021/06/23 00:23:11;;;;;;;1.58;0.90;;;25.20;58.50;;;;;;4991565;28;20402;-61
2021/06/23 00:25:37;;;;;;;2.40;1.00;;;25.10;58.30;;;;;;4982156;28;21433;-62
2021/06/23 00:28:03;;;;;;;1.53;0.70;;;25.10;58.40;;;;;;4986759;28;20923;-62
2021/06/23 00:30:28;;;;;;;2.05;0.90;;;25.10;58.30;;;;;;4987555;28;20437;-61
2021/06/23 00:32:55;;;;;;;2.53;1.00;;;25.10;58.30;;;;;;4990682;28;20903;-61
2021/06/23 00:35:21;;;;;;;1.83;0.90;;;25.10;58.30;;;;;;4988328;28;20395;-61
2021/06/23 00:37:47;;;;;;;1.65;1.10;;;25.10;58.20;;;;;;4989140;28;20398;-61
2021/06/23 00:40:13;;;;;;;1.60;0.80;;;25.10;58.30;;;;;;4991368;28;20386;-61
2021/06/23 00:42:41;;;;;;;2.17;0.90;;;25.10;58.20;;;;;;4995344;28;20494;-61
2021/06/23 00:45:09;;;;;;;2.07;1.00;;;25.10;58.20;;;;;;4989417;28;20772;-62
2021/06/23 00:47:35;;;;;;;1.88;1.00;;;25.10;58.20;;;;;;4988842;28;20507;-61
2021/06/23 00:50:08;;;;;;;2.07;1.20;;;25.10;58.20;;;;;;4988798;28;20395;-61
2021/06/23 00:52:34;;;;;;;1.60;0.90;;;25.10;58.20;;;;;;4989731;28;20398;-61
2021/06/23 00:55:01;;;;;;;2.10;1.20;;;25.10;58.20;;;;;;4990150;28;20421;-61
2021/06/23 00:57:27;;;;;;;1.60;0.98;;;25.10;58.20;;;;;;5001040;28;20962;-62
2021/06/23 00:59:55;;;;;;;1.45;0.90;;;25.10;58.20;;;;;;4991209;28;20425;-61
2021/06/23 01:02:22;;;;;;;1.95;1.10;;;25.10;58.20;;;;;;4984227;28;20413;-61
2021/06/23 01:04:49;;;;;;;1.60;1.00;;;25.10;58.10;;;;;;4989410;28;20432;-61
2021/06/23 01:07:16;;;;;;;2.03;1.10;;;25.10;58.10;;;;;;4987074;28;20501;-61
2021/06/23 01:09:41;;;;;;;2.53;1.10;;;25.10;58.20;;;;;;4984728;28;20499;-61
2021/06/23 01:12:19;;;;;;;1.88;1.08;;;25.10;58.10;;;;;;4988867;28;20477;-61
2021/06/23 01:14:45;;;;;;;1.40;0.98;;;25.10;58.20;;;;;;5000079;28;20400;-61
2021/06/23 01:17:12;;;;;;;1.75;0.98;;;25.00;58.00;;;;;;4992181;28;20394;-61
2021/06/23 01:19:42;;;;;;;2.20;1.17;;;25.10;58.10;;;;;;4987914;28;20473;-61
2021/06/23 01:22:09;;;;;;;1.50;0.93;;;25.10;58.10;;;;;;4988202;28;20444;-61
2021/06/23 01:24:34;;;;;;;1.67;1.05;;;25.10;58.10;;;;;;4995722;28;20388;-61
2021/06/23 01:27:00;;;;;;;1.85;1.00;;;25.00;58.00;;;;;;4990628;28;20429;-61
2021/06/23 01:29:26;;;;;;;2.00;0.90;;;25.00;58.00;;;;;;4993096;28;20755;-62
2021/06/23 01:31:52;;;;;;;1.70;0.90;;;25.00;58.00;;;;;;4992223;28;20386;-61
2021/06/23 01:34:18;;;;;;;1.70;0.88;;;25.10;58.10;;;;;;4992008;28;20402;-61
2021/06/23 01:36:43;;;;;;;2.10;1.15;;;25.00;58.00;;;;;;4998648;28;20555;-61
2021/06/23 01:39:09;;;;;;;1.90;1.00;;;25.00;57.90;;;;;;4992505;28;20405;-61
2021/06/23 01:41:34;;;;;;;1.52;0.98;;;25.00;57.90;;;;;;4992469;28;20402;-61
2021/06/23 01:44:03;;;;;;;1.60;1.00;;;25.00;57.90;;;;;;4994680;28;20402;-61
2021/06/23 01:46:29;;;;;;;1.70;0.90;;;25.00;57.90;;;;;;4991221;28;20400;-62
2021/06/23 01:48:55;;;;;;;2.33;1.10;;;25.00;57.90;;;;;;4994384;28;20420;-61
2021/06/23 01:51:21;;;;;;;1.63;0.93;;;25.00;57.90;;;;;;4992689;28;20460;-61
2021/06/23 01:53:47;;;;;;;1.90;1.10;;;25.00;57.90;;;;;;4994878;28;20398;-61
2021/06/23 01:56:13;;;;;;;2.03;1.05;;;25.00;57.90;;;;;;4994071;28;20394;-61
2021/06/23 01:58:42;;;;;;;1.85;1.02;;;25.00;57.90;;;;;;4991012;28;20485;-61
2021/06/23 02:01:16;;;;;;;1.67;0.80;;;25.00;57.90;;;;;;4989317;28;20715;-61
2021/06/23 02:03:56;;;;;;;1.80;0.90;;;25.00;57.90;;;;;;4991744;28;20475;-61
2021/06/23 02:06:41;;;;;;;1.63;1.10;;;25.00;57.90;;;;;;4991633;28;20892;-61
2021/06/23 02:09:30;;;;;;;1.60;1.02;;;25.00;57.90;;;;;;4992365;28;20789;-61
2021/06/23 02:12:04;;;;;;;1.48;1.00;;;25.00;57.90;;;;;;4990777;28;20398;-61
2021/06/23 02:14:36;;;;;;;1.55;1.00;;;25.00;57.90;;;;;;4984201;28;20558;-61
2021/06/23 02:17:03;;;;;;;1.73;0.90;;;25.00;57.90;;;;;;4988071;28;20453;-61
2021/06/23 02:19:31;;;;;;;1.85;1.13;;;25.00;57.80;;;;;;4994770;28;20401;-62
2021/06/23 02:21:57;;;;;;;1.70;1.15;;;25.00;57.90;;;;;;4987599;28;20459;-61
2021/06/23 02:24:23;;;;;;;1.92;1.02;;;25.00;57.90;;;;;;4994434;28;20405;-61
2021/06/23 02:26:50;;;;;;;1.50;0.90;;;25.00;57.80;;;;;;4991146;28;20989;-62
2021/06/23 02:29:15;;;;;;;1.58;0.90;;;25.00;57.80;;;;;;4991357;28;20498;-61
2021/06/23 02:31:41;;;;;;;1.50;0.90;;;25.00;57.80;;;;;;4996963;28;20484;-61
2021/06/23 02:34:10;;;;;;;2.13;0.90;;;25.00;57.80;;;;;;4997135;28;20397;-64
2021/06/23 02:36:37;;;;;;;1.75;0.98;;;25.00;57.80;;;;;;4993475;28;20871;-62
2021/06/23 02:39:04;;;;;;;2.22;1.00;;;25.00;57.80;;;;;;4997497;28;20397;-61
2021/06/23 02:41:29;;;;;;;1.55;0.93;;;25.00;57.80;;;;;;4991892;28;20391;-61
2021/06/23 02:43:55;;;;;;;1.80;1.00;;;24.90;57.80;;;;;;4991684;28;20818;-61
2021/06/23 02:46:21;;;;;;;1.52;1.00;;;25.00;57.80;;;;;;4991498;28;20387;-62
2021/06/23 02:48:50;;;;;;;2.20;0.93;;;24.90;57.80;;;;;;4985714;28;20930;-61
2021/06/23 02:51:21;;;;;;;1.70;1.00;;;25.00;57.80;;;;;;4991067;28;20416;-61
2021/06/23 02:53:49;;;;;;;1.60;1.00;;;25.00;57.80;;;;;;4991273;28;20401;-61
2021/06/23 02:56:18;;;;;;;1.63;0.97;;;24.90;57.70;;;;;;4990828;28;20385;-62
2021/06/23 02:58:44;;;;;;;1.70;1.20;;;24.90;57.70;;;;;;4990785;28;20488;-62
2021/06/23 03:01:11;;;;;;;1.40;0.88;;;25.00;57.80;;;;;;4986803;28;20410;-61
2021/06/23 03:03:38;;;;;;;1.70;0.90;;;24.90;57.80;;;;;;4984690;28;20453;-61
2021/06/23 03:06:04;;;;;;;1.30;0.80;;;24.90;57.70;;;;;;4993522;28;20867;-62
2021/06/23 03:08:31;;;;;;;1.60;0.90;;;24.90;57.80;;;;;;4993421;28;20764;-61
2021/06/23 03:10:57;;;;;;;2.70;1.30;;;24.90;57.80;;;;;;4991192;28;20387;-61
2021/06/23 03:13:22;;;;;;;2.08;1.30;;;24.90;58.20;;;;;;4993913;28;20408;-61
2021/06/23 03:15:48;;;;;;;1.50;1.10;;;24.90;58.20;;;;;;4992744;28;20509;-62
2021/06/23 03:18:14;;;;;;;2.80;1.30;;;24.90;58.60;;;;;;4989481;28;20496;-61
2021/06/23 03:20:39;;;;;;;10.10;1.70;;;24.90;59.60;;;;;;4989225;28;20401;-65
2021/06/23 03:23:05;;;;;;;3.42;1.25;;;24.90;59.00;;;;;;4990469;28;20422;-61
2021/06/23 03:25:31;;;;;;;4.65;1.45;;;25.00;59.30;;;;;;4990806;28;20390;-62
2021/06/23 03:27:59;;;;;;;3.45;1.52;;;24.90;59.70;;;;;;4996873;28;21499;-61
2021/06/23 03:30:26;;;;;;;2.65;1.40;;;24.90;59.70;;;;;;4989450;28;20442;-61
2021/06/23 03:32:52;;;;;;;2.47;1.50;;;24.90;60.10;;;;;;4989894;28;20399;-61
2021/06/23 03:35:20;;;;;;;3.60;1.50;;;24.90;59.70;;;;;;4990343;28;20380;-61
2021/06/23 03:37:46;;;;;;;3.67;1.80;;;24.90;60.10;;;;;;4989693;28;20393;-61
2021/06/23 03:40:12;;;;;;;3.78;1.38;;;24.90;61.80;;;;;;4988990;28;20755;-61
2021/06/23 03:42:38;;;;;;;3.10;1.43;;;25.00;62.50;;;;;;4994906;28;20393;-61
2021/06/23 03:45:05;;;;;;;4.90;1.65;;;25.00;60.80;;;;;;4992926;28;20398;-61
2021/06/23 03:47:30;;;;;;;3.70;1.50;;;25.00;62.40;;;;;;4993959;28;20872;-62
2021/06/23 03:49:56;;;;;;;2.88;1.30;;;25.00;62.50;;;;;;4990425;28;20386;-61
2021/06/23 03:52:22;;;;;;;4.13;1.60;;;25.10;62.30;;;;;;4987431;28;20440;-61
2021/06/23 03:54:47;;;;;;;2.80;1.50;;;25.00;61.90;;;;;;4988048;28;20736;-61
2021/06/23 03:57:13;;;;;;;2.22;1.30;;;25.00;61.50;;;;;;4989537;28;20474;-61
2021/06/23 03:59:39;;;;;;;2.30;1.47;;;25.00;60.70;;;;;;4989837;28;20431;-62
2021/06/23 04:02:04;;;;;;;3.10;1.40;;;25.00;60.20;;;;;;4995531;28;20877;-63
2021/06/23 04:04:30;;;;;;;3.20;1.42;;;25.00;61.10;;;;;;4995813;28;20765;-62
2021/06/23 04:06:56;;;;;;;2.80;1.20;;;24.90;60.70;;;;;;4989268;28;20415;-62
2021/06/23 04:09:21;;;;;;;4.28;1.35;;;24.90;60.80;;;;;;4989378;28;20401;-62
2021/06/23 04:11:47;;;;;;;4.37;1.47;;;24.90;60.70;;;;;;4991059;28;20425;-62
2021/06/23 04:14:12;;;;;;;7.87;1.53;;;24.90;60.40;;;;;;4989963;28;20402;-62
2021/06/23 04:16:38;;;;;;;3.30;1.33;;;24.90;61.20;;;;;;4989240;28;20753;-62
2021/06/23 04:19:04;;;;;;;3.40;1.60;;;24.80;61.00;;;;;;4989762;28;20399;-62
2021/06/23 04:21:29;;;;;;;2.58;1.38;;;24.80;61.30;;;;;;4989919;28;20395;-62
2021/06/23 04:23:55;;;;;;;2.47;1.40;;;24.80;61.10;;;;;;4987034;28;20537;-62
2021/06/23 04:26:21;;;;;;;1.80;1.30;;;24.80;61.30;;;;;;4989299;28;20978;-62
2021/06/23 04:28:46;;;;;;;2.03;1.30;;;24.70;60.80;;;;;;4983382;28;20418;-62
2021/06/23 04:31:12;;;;;;;3.13;1.50;;;24.70;61.30;;;;;;5001137;28;20446;-62
2021/06/23 04:33:38;;;;;;;2.45;1.48;;;24.70;62.10;;;;;;4993830;28;20927;-62
2021/06/23 04:36:04;;;;;;;2.58;1.42;;;24.70;62.00;;;;;;4988902;28;20376;-62
2021/06/23 04:38:29;;;;;;;2.40;1.30;;;24.70;61.40;;;;;;4986113;28;20392;-62
2021/06/23 04:40:55;;;;;;;2.10;1.17;;;24.60;61.80;;;;;;4987700;28;20753;-63
2021/06/23 04:43:21;;;;;;;2.70;1.40;;;24.60;61.60;;;;;;4988691;28;20401;-62
2021/06/23 04:45:46;;;;;;;2.00;1.40;;;24.60;61.80;;;;;;4987904;28;20390;-63
2021/06/23 04:48:12;;;;;;;2.83;1.30;;;24.60;62.10;;;;;;4989681;28;20870;-62
2021/06/23 04:50:38;;;;;;;3.10;1.40;;;24.60;62.40;;;;;;4988926;28;21190;-62
2021/06/23 04:53:04;;;;;;;4.50;1.50;;;24.60;63.30;;;;;;4991432;28;20432;-62
2021/06/23 04:55:29;;;;;;;3.10;1.20;;;24.60;62.60;;;;;;4990716;28;20424;-62
2021/06/23 04:57:55;;;;;;;4.23;1.40;;;24.60;62.00;;;;;;4990089;28;20783;-62
2021/06/23 05:00:21;;;;;;;3.13;1.10;;;24.60;61.70;;;;;;4993487;28;20391;-62
2021/06/23 05:02:47;;;;;;;2.50;1.20;;;24.60;61.60;;;;;;4994154;28;20421;-62
2021/06/23 05:05:13;;;;;;;2.57;1.20;;;24.60;61.50;;;;;;4995296;28;20394;-61
2021/06/23 05:07:38;;;;;;;4.13;1.20;;;24.60;61.40;;;;;;4991716;28;20523;-62
2021/06/23 05:10:04;;;;;;;3.67;1.40;;;24.60;61.40;;;;;;4990190;28;20859;-62
2021/06/23 05:12:30;;;;;;;2.25;1.10;;;24.60;61.40;;;;;;4991865;28;20410;-62
2021/06/23 05:14:57;;;;;;;2.92;1.10;;;24.60;61.30;;;;;;4992296;28;20388;-61
2021/06/23 05:17:23;;;;;;;3.03;1.23;;;24.60;61.20;;;;;;4995001;28;20402;-62
2021/06/23 05:19:49;;;;;;;2.60;1.00;;;24.60;61.10;;;;;;4994995;28;20886;-62
2021/06/23 05:22:15;;;;;;;3.90;1.10;;;24.60;61.10;;;;;;4995694;28;20490;-62
2021/06/23 05:24:41;;;;;;;2.33;1.17;;;24.60;61.00;;;;;;4992523;28;20433;-61
2021/06/23 05:27:09;;;;;;;2.97;1.48;;;24.60;60.70;;;;;;4993329;28;20410;-62
2021/06/23 05:29:35;;;;;;;4.00;1.50;;;24.60;61.10;;;;;;4989307;28;20399;-62
2021/06/23 05:32:01;;;;;;;2.85;1.60;;;24.50;61.20;;;;;;4993053;28;20398;-61
2021/06/23 05:34:28;;;;;;;2.37;1.60;;;24.50;61.60;;;;;;4995384;28;20394;-68
2021/06/23 05:36:58;;;;;;;4.50;2.20;;;24.50;61.90;;;;;;4991350;28;20396;-63
2021/06/23 05:39:25;;;;;;;4.13;2.00;;;24.40;62.70;;;;;;4996183;28;20948;-63
2021/06/23 05:41:51;;;;;;;3.13;2.30;;;24.30;63.10;;;;;;4998171;28;20576;-62
2021/06/23 05:44:17;;;;;;;4.53;2.40;;;24.30;63.50;;;;;;4992925;28;20887;-70
2021/06/23 05:46:43;;;;;;;3.78;2.40;;;24.20;64.10;;;;;;4987452;28;20394;-62
2021/06/23 05:49:08;;;;;;;4.07;2.33;;;24.20;64.10;;;;;;4993757;28;20405;-63
2021/06/23 05:51:34;;;;;;;4.05;2.22;;;24.20;64.10;;;;;;4990901;28;20425;-65
2021/06/23 05:54:00;;;;;;;4.17;2.70;;;24.10;64.00;;;;;;4990711;28;20397;-65
2021/06/23 05:56:25;;;;;;;2.88;2.28;;;24.10;64.30;;;;;;4993995;28;20421;-64
2021/06/23 05:58:51;;;;;;;4.07;2.20;;;24.20;64.10;;;;;;4992799;28;20665;-62
2021/06/23 06:01:17;;;;;;;3.13;2.20;;;24.10;64.20;;;;;;4993012;28;20465;-63
2021/06/23 06:03:42;;;;;;;2.95;2.20;;;24.10;64.00;;;;;;4990547;28;20523;-67
2021/06/23 06:06:08;;;;;;;3.97;2.40;;;24.20;64.20;;;;;;4991301;28;20394;-63
2021/06/23 06:08:33;;;;;;;4.90;2.35;;;24.20;64.60;;;;;;4996442;28;20438;-62
2021/06/23 06:10:59;;;;;;;2.55;2.20;;;24.20;64.50;;;;;;4989530;28;20441;-70
2021/06/23 06:13:25;;;;;;;3.80;2.47;;;24.20;64.40;;;;;;4994100;28;20401;-62
2021/06/23 06:15:50;;;;;;;3.05;2.47;;;24.20;64.60;;;;;;5003125;28;20408;-62
2021/06/23 06:18:16;;;;;;;3.80;2.60;;;24.20;64.30;;;;;;4998061;28;20408;-62
2021/06/23 06:20:42;;;;;;;4.90;2.30;;;24.20;64.40;;;;;;4991065;28;20920;-62
2021/06/23 06:23:08;;;;;;;4.30;2.30;;;24.10;64.30;;;;;;5003524;28;20408;-61
2021/06/23 06:25:34;;;;;;;5.43;2.15;;;24.10;63.90;;;;;;4993544;28;20398;-62
2021/06/23 06:28:00;;;;;;;4.25;2.00;;;24.20;63.60;;;;;;4991999;28;20461;-61
2021/06/23 06:30:26;;;;;;;3.80;1.80;;;24.20;63.40;;;;;;4993548;28;20886;-62
2021/06/23 06:32:53;;;;;;;3.38;1.65;;;24.20;63.80;;;;;;4991634;28;20457;-62
2021/06/23 06:35:19;;;;;;;4.60;1.60;;;24.20;63.00;;;;;;4991753;28;20403;-62
2021/06/23 06:37:45;;;;;;;3.10;1.60;;;24.20;62.80;;;;;;4988745;28;20456;-61
2021/06/23 06:40:12;;;;;;;2.90;1.38;;;24.30;62.70;;;;;;4991145;28;20398;-62
2021/06/23 06:42:38;;;;;;;2.38;1.50;;;24.20;62.50;;;;;;4990963;28;20402;-62
2021/06/23 06:45:05;;;;;;;3.03;1.50;;;24.30;62.40;;;;;;4990963;28;20390;-62
2021/06/23 06:47:31;;;;;;;2.70;1.58;;;24.30;62.20;;;;;;4996650;28;20443;-62
2021/06/23 06:49:57;;;;;;;1.87;1.30;;;24.30;62.10;;;;;;4997412;28;20448;-62
2021/06/23 06:52:23;;;;;;;3.35;1.50;;;24.30;62.60;;;;;;4997470;28;20793;-61
2021/06/23 06:54:48;;;;;;;3.20;1.42;;;24.30;61.90;;;;;;4991099;28;20388;-62
2021/06/23 06:57:14;;;;;;;2.20;1.47;;;24.30;61.80;;;;;;4990973;28;20400;-62
2021/06/23 06:59:40;;;;;;;2.47;1.37;;;24.30;61.70;;;;;;4991509;28;20390;-62
2021/06/23 07:02:06;;;;;;;2.47;1.30;;;24.40;61.70;;;;;;4991554;28;20398;-61
2021/06/23 07:04:32;;;;;;;2.97;1.30;;;24.30;61.60;;;;;;4990741;28;20410;-61
2021/06/23 07:06:57;;;;;;;1.60;1.20;;;24.30;61.50;;;;;;4991194;28;20485;-61
2021/06/23 07:09:23;;;;;;;2.13;1.50;;;24.40;61.50;;;;;;4987575;28;20402;-62
2021/06/23 07:11:49;;;;;;;2.10;1.30;;;24.30;61.40;;;;;;4989900;28;20488;-62
2021/06/23 07:14:15;;;;;;;1.80;1.10;;;24.30;61.30;;;;;;4990367;28;20487;-62
2021/06/23 07:16:42;;;;;;;1.85;1.20;;;24.40;61.20;;;;;;4989971;28;20514;-62
2021/06/23 07:19:08;;;;;;;1.92;1.30;;;24.40;61.10;;;;;;4995424;28;20384;-62
2021/06/23 07:21:34;;;;;;;1.63;1.20;;;24.40;61.00;;;;;;4990217;28;20398;-62
2021/06/23 07:24:00;;;;;;;2.03;1.30;;;24.40;60.90;;;;;;4996617;28;20406;-62
2021/06/23 07:26:27;;;;;;;1.70;1.10;;;24.50;60.90;;;;;;4997193;28;20440;-62
2021/06/23 07:28:54;;;;;;;2.30;1.20;;;24.50;60.80;;;;;;4995615;28;20603;-62
2021/06/23 07:31:29;;;;;;;1.52;0.98;;;24.50;60.80;;;;;;4991358;28;20422;-62
2021/06/23 07:34:17;;;;;;;1.48;1.10;;;24.50;60.60;;;;;;4990719;28;20398;-61
2021/06/23 07:36:50;;;;;;;1.60;1.00;;;24.40;60.50;;;;;;4989590;28;20390;-62
2021/06/23 07:39:18;;;;;;;1.65;1.10;;;24.50;60.60;;;;;;4988692;28;20769;-62
2021/06/23 07:41:46;;;;;;;1.90;1.20;;;24.40;60.50;;;;;;4989884;28;20422;-62
2021/06/23 07:44:14;;;;;;;2.00;1.23;;;24.40;60.40;;;;;;4989872;28;20491;-61
2021/06/23 07:46:47;;;;;;;1.65;1.10;;;24.40;60.40;;;;;;4989650;28;20405;-62
2021/06/23 07:49:14;;;;;;;1.30;0.90;;;24.40;60.40;;;;;;4990064;28;20417;-62
2021/06/23 08:09:35;;;;;;;4.07;1.40;;;24.30;62.50;;;;;;4984190;28;20732;-60
2021/06/23 08:12:17;;;;;;;3.53;1.50;;;24.30;62.00;;;;;;4967797;28;20420;-61
2021/06/23 08:14:43;;;;;;;3.25;1.40;;;24.20;62.00;;;;;;4975820;28;20399;-61
2021/06/23 08:17:09;;;;;;;3.85;1.15;;;24.30;61.80;;;;;;4973551;28;20457;-60
2021/06/23 08:19:35;;;;;;;2.47;1.27;;;24.30;61.60;;;;;;4970830;28;20392;-62
2021/06/23 08:22:01;;;;;;;3.70;1.50;;;24.30;61.50;;;;;;4975111;28;20406;-61
2021/06/23 08:24:27;;;;;;;2.53;1.55;;;24.30;61.40;;;;;;4966442;28;20727;-61
2021/06/23 08:26:52;;;;;;;2.42;1.30;;;24.30;61.40;;;;;;4981190;28;20913;-61
2021/06/23 08:29:18;;;;;;;2.37;1.40;;;24.30;61.70;;;;;;4982436;28;20419;-61
2021/06/23 08:31:44;;;;;;;2.05;1.40;;;24.30;62.00;;;;;;4977227;28;20409;-66
2021/06/23 08:34:09;;;;;;;3.07;1.50;;;24.30;62.10;;;;;;4964118;28;20409;-68
2021/06/23 08:36:35;;;;;;;2.38;1.60;;;24.20;62.10;;;;;;4974080;28;20414;-67
2021/06/23 08:39:01;;;;;;;2.57;1.63;;;24.20;62.40;;;;;;4969532;28;20398;-66
2021/06/23 08:41:26;;;;;;;2.00;1.50;;;24.20;62.70;;;;;;4967967;28;20403;-64
2021/06/23 08:43:57;;;;;;;2.40;1.45;;;24.20;62.80;;;;;;4966128;28;20410;-62
2021/06/23 08:46:23;;;;;;;2.92;1.70;;;24.20;62.70;;;;;;4975530;28;20437;-67
2021/06/23 08:48:48;;;;;;;3.08;1.60;;;24.20;62.50;;;;;;4968087;28;20473;-69
2021/06/23 08:51:14;;;;;;;3.00;1.60;;;24.20;63.00;;;;;;4963596;28;20892;-64
2021/06/23 08:53:40;;;;;;;2.30;1.52;;;24.20;62.70;;;;;;4973164;28;20400;-65
2021/06/23 08:56:07;;;;;;;2.10;1.80;;;24.20;62.60;;;;;;4964681;28;20459;-69
2021/06/23 08:58:33;;;;;;;2.70;1.70;;;24.10;62.50;;;;;;4981629;28;20402;-65
2021/06/23 09:00:59;;;;;;;2.40;1.50;;;24.10;62.40;;;;;;4963863;28;20400;-61
2021/06/23 09:03:25;;;;;;;4.10;1.70;;;24.10;62.40;;;;;;4973024;28;20625;-61
2021/06/23 09:05:56;;;;;;;2.03;1.60;;;24.10;62.80;;;;;;4976341;28;20418;-69
2021/06/23 09:08:37;;;;;;;2.90;1.77;;;24.10;62.40;;;;;;4978243;28;20498;-63
2021/06/23 09:11:20;;;;;;;2.47;1.88;;;24.10;62.70;;;;;;4979206;28;20425;-69
2021/06/23 09:13:46;;;;;;;2.35;1.70;;;24.10;62.50;;;;;;4965894;28;20490;-67
2021/06/23 09:16:12;;;;;;;2.50;1.80;;;24.10;62.40;;;;;;4965221;28;20431;-61
2021/06/23 09:18:41;;;;;;;2.35;1.73;;;24.10;62.40;;;;;;4971349;28;20749;-69
2021/06/23 09:21:15;;;;;;;2.83;1.70;;;24.10;62.60;;;;;;4968846;28;20396;-61
2021/06/23 09:23:47;;;;;;;3.08;1.80;;;24.20;62.60;;;;;;4971586;28;20386;-68
2021/06/23 09:26:27;;;;;;;2.83;1.92;;;24.20;62.80;;;;;;4971157;28;20392;-68
2021/06/23 09:29:12;;;;;;;3.08;2.20;;;24.20;63.60;;;;;;4971668;28;20426;-65
2021/06/23 09:32:00;;;;;;;2.63;1.88;;;24.20;63.30;;;;;;4967051;28;20410;-64
2021/06/23 09:34:29;;;;;;;2.25;1.92;;;24.20;63.10;;;;;;4958589;28;20800;-68
2021/06/23 09:36:56;;;;;;;3.38;1.90;;;24.20;63.80;;;;;;4978850;28;20921;-64
2021/06/23 09:39:25;;;;;;;2.95;2.03;;;24.20;63.10;;;;;;4964693;28;20435;-67
2021/06/23 09:41:52;;;;;;;3.78;2.30;;;24.20;65.30;;;;;;4974808;28;20407;-68
2021/06/23 09:44:18;;;;;;;2.92;1.80;;;24.20;62.50;;;;;;4971207;28;20388;-62
2021/06/23 09:46:46;;;;;;;3.08;1.90;;;24.20;62.50;;;;;;4973842;28;20390;-68
2021/06/23 09:49:16;;;;;;;2.33;1.85;;;24.20;62.90;;;;;;4992626;28;20973;-62
2021/06/23 09:51:47;;;;;;;2.63;1.70;;;24.10;62.70;;;;;;4972711;28;20396;-62
2021/06/23 09:54:15;;;;;;;3.80;2.10;;;24.20;62.70;;;;;;4976145;28;20485;-67
2021/06/23 09:56:45;;;;;;;2.45;1.80;;;24.20;62.50;;;;;;4976633;28;20394;-68
2021/06/23 09:59:23;;;;;;;3.55;2.30;;;24.20;62.30;;;;;;4975096;28;20403;-62
2021/06/23 10:01:49;;;;;;;3.63;2.25;;;24.10;61.70;;;;;;4970296;28;20415;-63
2021/06/23 10:04:14;;;;;;;3.20;2.30;;;24.10;62.90;;;;;;4969556;28;20412;-69
2021/06/23 10:06:45;;;;;;;4.32;2.05;;;24.10;63.00;;;;;;4969952;28;20409;-66
2021/06/23 10:09:27;;;;;;;3.42;2.22;;;24.20;62.80;;;;;;4967874;28;20924;-60
2021/06/23 10:11:55;;;;;;;3.35;2.00;;;24.30;63.90;;;;;;4964727;28;20404;-61
2021/06/23 10:14:22;;;;;;;3.13;1.83;;;24.30;62.80;;;;;;4970229;28;20404;-62
2021/06/23 10:16:50;;;;;;;3.03;1.88;;;24.30;62.10;;;;;;4967461;28;20501;-62
2021/06/23 10:19:16;;;;;;;4.30;1.85;;;24.30;62.00;;;;;;4965635;28;20447;-62
2021/06/23 10:21:42;;;;;;;2.20;1.63;;;24.30;62.00;;;;;;4966833;28;20395;-63
2021/06/23 10:24:10;;;;;;;4.13;1.63;;;24.30;61.80;;;;;;4976355;28;20796;-61
2021/06/23 10:26:39;;;;;;;2.63;1.60;;;24.30;61.70;;;;;;4983459;28;20402;-61
2021/06/23 10:29:07;;;;;;;4.72;1.80;;;24.30;61.60;;;;;;4975013;28;20432;-62
2021/06/23 10:31:33;;;;;;;3.28;1.50;;;24.40;61.40;;;;;;4968524;28;20391;-65
2021/06/23 10:34:00;;;;;;;4.18;1.58;;;24.40;61.20;;;;;;4983232;28;20428;-62
2021/06/23 10:36:26;;;;;;;2.78;1.60;;;24.40;61.10;;;;;;4965881;28;20423;-62
2021/06/23 10:38:53;;;;;;;2.40;1.65;;;24.40;61.10;;;;;;4965863;28;20526;-63
2021/06/23 10:41:19;;;;;;;2.83;1.40;;;24.40;61.10;;;;;;4979363;28;20403;-62
2021/06/23 10:44:24;;;;;;;2.30;1.50;;;24.40;60.80;;;;;;4967887;28;20535;-62
2021/06/23 10:46:55;;;;;;;2.85;1.50;;;24.50;61.50;;;;;;4971115;28;20420;-63
2021/06/23 10:49:43;;;;;;;3.45;1.70;;;24.40;60.80;;;;;;4968914;28;20410;-62
2021/06/23 10:52:21;;;;;;;3.13;1.50;;;24.50;60.70;;;;;;4966441;28;20865;-62
2021/06/23 10:54:48;;;;;;;2.67;1.40;;;24.40;60.50;;;;;;4965049;28;20400;-62
2021/06/23 10:57:39;;;;;;;2.45;1.33;;;24.50;60.60;;;;;;4973286;28;20439;-62
2021/06/23 11:00:29;;;;;;;2.35;1.30;;;24.50;60.60;;;;;;4965488;28;20415;-61
2021/06/23 11:03:00;;;;;;;2.08;1.30;;;24.60;60.60;;;;;;4964124;28;20569;-62
2021/06/23 11:05:47;;;;;;;1.83;1.20;;;24.60;60.30;;;;;;4969718;28;20440;-62
2021/06/23 11:08:33;;;;;;;3.83;1.38;;;24.60;60.20;;;;;;4970663;28;20420;-61
2021/06/23 11:11:01;;;;;;;2.60;1.20;;;24.60;60.20;;;;;;4964466;28;20412;-61
2021/06/23 11:13:32;;;;;;;2.33;1.30;;;24.60;60.20;;;;;;4968338;28;20455;-62
2021/06/23 11:15:58;;;;;;;2.67;1.20;;;24.60;60.30;;;;;;4968385;28;20396;-62
2021/06/23 11:18:40;;;;;;;2.40;1.00;;;24.60;60.30;;;;;;4968580;28;20404;-62
2021/06/23 11:21:20;;;;;;;2.00;1.10;;;24.60;60.10;;;;;;4966589;28;20388;-62
2021/06/23 11:23:58;;;;;;;2.33;1.50;;;24.60;60.10;;;;;;4981721;28;20411;-63
2021/06/23 11:26:24;;;;;;;2.95;1.10;;;24.60;60.00;;;;;;4964985;28;20409;-62
2021/06/23 11:28:57;;;;;;;1.92;1.30;;;24.60;59.90;;;;;;4964492;28;20427;-62
2021/06/23 11:31:42;;;;;;;4.57;1.45;;;24.60;59.80;;;;;;4964276;28;20380;-62
2021/06/23 11:34:09;;;;;;;3.83;1.40;;;24.60;60.30;;;;;;4968935;28;20455;-62
2021/06/23 11:36:35;;;;;;;5.20;1.27;;;24.60;59.70;;;;;;4968827;28;20397;-62
2021/06/23 11:39:03;;;;;;;4.15;1.25;;;24.60;59.60;;;;;;4968824;28;20427;-62
2021/06/23 11:41:29;;;;;;;2.10;1.20;;;24.60;59.60;;;;;;4970400;28;20435;-62
2021/06/23 11:43:54;;;;;;;2.17;1.33;;;24.60;59.60;;;;;;4975514;28;20430;-62
2021/06/23 11:46:21;;;;;;;4.90;1.30;;;24.60;59.60;;;;;;4965348;28;20393;-62
2021/06/23 11:48:47;;;;;;;3.23;1.30;;;24.60;59.60;;;;;;4964702;28;21508;-61
2021/06/23 11:51:13;;;;;;;2.45;1.23;;;24.60;59.60;;;;;;4969961;28;20397;-62
2021/06/23 11:53:40;;;;;;;2.30;1.35;;;24.60;59.40;;;;;;4971131;28;20404;-62
2021/06/23 11:56:06;;;;;;;4.20;1.30;;;24.60;59.50;;;;;;4969300;28;20390;-62
2021/06/23 11:58:32;;;;;;;2.20;1.30;;;24.60;59.40;;;;;;4970445;28;20581;-62
2021/06/23 12:00:58;;;;;;;2.33;1.20;;;24.60;59.50;;;;;;4975943;28;20820;-62
2021/06/23 12:03:24;;;;;;;3.45;1.38;;;24.60;59.50;;;;;;4986392;28;20451;-62
2021/06/23 12:05:50;;;;;;;6.38;1.40;;;24.60;59.60;;;;;;4972183;28;20400;-62
2021/06/23 12:08:17;;;;;;;5.77;1.80;;;24.60;59.90;;;;;;4977587;28;20506;-62
2021/06/23 12:10:45;;;;;;;5.15;1.92;;;24.70;60.30;;;;;;4971174;28;20400;-62
2021/06/23 12:13:12;;;;;;;4.95;1.58;;;24.70;60.30;;;;;;4969463;28;20433;-62
2021/06/23 12:15:38;;;;;;;8.05;1.40;;;24.70;60.30;;;;;;4969752;28;20400;-62
2021/06/23 12:18:06;;;;;;;5.20;1.33;;;24.70;60.10;;;;;;4970055;28;20405;-62
2021/06/23 12:20:33;;;;;;;3.88;1.50;;;24.70;60.40;;;;;;4969958;28;20909;-62
2021/06/23 12:23:00;;;;;;;4.22;1.40;;;24.70;60.50;;;;;;4975540;28;20481;-62
2021/06/23 12:25:38;;;;;;;3.15;1.55;;;24.70;60.40;;;;;;4973433;28;20402;-62
2021/06/23 12:28:06;;;;;;;4.15;1.45;;;24.70;60.30;;;;;;4975134;28;20605;-65
2021/06/23 12:30:33;;;;;;;4.20;1.40;;;24.70;60.20;;;;;;4969547;28;20885;-62
2021/06/23 12:33:03;;;;;;;5.07;1.50;;;24.70;60.40;;;;;;4973940;28;20469;-62
2021/06/23 12:35:30;;;;;;;4.35;1.30;;;24.70;60.20;;;;;;4968010;28;20842;-62
2021/06/23 12:37:57;;;;;;;4.07;1.40;;;24.70;60.20;;;;;;4969423;28;21006;-62
2021/06/23 12:40:23;;;;;;;5.05;1.45;;;24.70;60.50;;;;;;4970056;28;20399;-62
2021/06/23 12:42:49;;;;;;;3.30;1.35;;;24.80;60.40;;;;;;4969682;28;20395;-62
2021/06/23 12:45:14;;;;;;;4.20;1.50;;;24.80;60.40;;;;;;4969419;28;20387;-62
2021/06/23 12:47:40;;;;;;;4.87;1.87;;;24.80;60.30;;;;;;4966549;28;20557;-62
2021/06/23 12:50:08;;;;;;;2.83;1.40;;;24.80;60.30;;;;;;4966844;28;20428;-63
2021/06/23 12:52:35;;;;;;;3.72;1.38;;;24.80;60.30;;;;;;4966491;28;20433;-62
2021/06/23 12:55:00;;;;;;;3.85;1.40;;;24.80;60.30;;;;;;4963720;28;20403;-68
2021/06/23 12:57:26;;;;;;;4.13;1.50;;;24.80;60.20;;;;;;4967082;28;21046;-63
2021/06/23 12:59:52;;;;;;;2.85;1.40;;;24.80;60.10;;;;;;4968233;28;20479;-63
2021/06/23 13:02:19;;;;;;;3.30;1.20;;;24.80;60.10;;;;;;4968773;28;20396;-62
2021/06/23 13:04:45;;;;;;;3.00;1.45;;;24.80;60.00;;;;;;4964951;28;20408;-67
2021/06/23 13:07:10;;;;;;;2.05;1.40;;;24.80;60.00;;;;;;4964149;28;20396;-62
2021/06/23 13:09:36;;;;;;;2.38;1.38;;;24.80;59.80;;;;;;4960532;28;20798;-62